Time;durP1;ratioP1;P1;durP2;ratioP2;P2;SDS_P1;SDS_P2;PMS_P1;PMS_P2;Temp;Humidity;BMP_temperature;BMP_pressure;BME280_temperature;BME280_humidity;BME280_pressure;Samples;Min_cycle;Max_cycle;Signal;HPM_P1;HPM_P2
2022/09/16 00:01:19;;;;;;;9.02;2.72;;;;;;;11.41;100.00;68036.09;5031507;28;20045;-84
2022/09/16 00:03:45;;;;;;;3.97;1.83;;;;;;;11.38;100.00;68030.00;5018949;28;20037;-84
2022/09/16 00:06:24;;;;;;;4.18;2.05;;;;;;;11.45;100.00;68045.97;5011068;28;20650;-84
2022/09/16 00:08:50;;;;;;;6.45;2.40;;;;;;;;;;5025925;28;20475;-85
2022/09/16 00:11:17;;;;;;;5.93;2.25;;;;;;;11.45;100.00;68040.63;5027492;28;20042;-84
2022/09/16 00:13:42;;;;;;;4.70;1.80;;;;;;;11.45;100.00;68040.63;5027542;28;20183;-84
2022/09/16 00:16:10;;;;;;;7.88;2.63;;;;;;;11.43;100.00;68035.13;5034560;28;20536;-84
2022/09/16 00:18:35;;;;;;;6.85;2.55;;;;;;;11.38;100.00;68032.69;5040712;28;20033;-84
2022/09/16 00:21:05;;;;;;;6.32;2.30;;;;;;;11.35;100.00;68026.03;5040904;28;20038;-85
2022/09/16 00:23:30;;;;;;;6.20;2.47;;;;;;;11.39;100.00;68039.13;5040015;28;20044;-85
2022/09/16 00:25:55;;;;;;;8.02;2.78;;;;;;;;;;5033953;28;20061;-85
2022/09/16 00:28:22;;;;;;;6.38;2.30;;;;;;;11.32;100.00;68025.31;5035899;28;20052;-85
2022/09/16 00:30:47;;;;;;;6.88;2.30;;;;;;;;;;5028898;28;20072;-85
2022/09/16 00:33:13;;;;;;;8.75;2.50;;;;;;;11.33;100.00;68032.31;5030914;28;20038;-85
2022/09/16 00:35:38;;;;;;;6.22;2.55;;;;;;;;;;5027943;28;20080;-85
2022/09/16 00:38:04;;;;;;;8.30;2.38;;;;;;;11.26;100.00;68019.63;5032074;28;20053;-85
2022/09/16 00:40:29;;;;;;;5.25;1.95;;;;;;;11.26;100.00;68024.94;5032987;28;20365;-84
2022/09/16 00:42:55;;;;;;;6.53;2.72;;;;;;;11.34;100.00;68032.91;5034304;28;20080;-84
2022/09/16 00:45:24;;;;;;;4.63;2.38;;;;;;;;;;5022709;28;20671;-83
2022/09/16 00:47:54;;;;;;;4.95;2.83;;;;;;;11.35;100.00;68029.28;5027994;28;20049;-85
2022/09/16 00:50:24;;;;;;;6.38;2.50;;;;;;;11.34;100.00;68028.16;5027504;28;20335;-85
2022/09/16 00:52:51;;;;;;;7.05;2.90;;;;;;;;;;5033473;28;20041;-84
2022/09/16 00:55:21;;;;;;;6.40;2.72;;;;;;;11.32;100.00;68031.19;5033146;28;20404;-84
2022/09/16 00:57:47;;;;;;;6.32;2.83;;;;;;;;;;5025852;28;20045;-84
2022/09/16 01:00:13;;;;;;;5.43;2.40;;;;;;;11.32;100.00;68025.88;5031765;28;20417;-84
2022/09/16 01:02:40;;;;;;;7.05;2.92;;;;;;;;;;5027539;28;20046;-85
2022/09/16 01:05:08;;;;;;;6.95;2.25;;;;;;;;;;5030275;28;20519;-83
2022/09/16 01:07:36;;;;;;;9.65;3.03;;;;;;;;;;5012620;28;20122;-84
2022/09/16 01:10:02;;;;;;;6.93;3.20;;;;;;;11.29;100.00;68027.78;5021504;28;20316;-84
2022/09/16 01:12:30;;;;;;;9.45;3.17;;;;;;;11.32;100.00;68031.19;5023968;28;20058;-84
2022/09/16 01:14:57;;;;;;;6.55;2.58;;;;;;;;;;5025460;28;20063;-85
2022/09/16 01:17:52;;;;;;;8.95;3.40;;;;;;;;;;5023536;28;20045;-84
2022/09/16 01:21:02;;;;;;;7.68;3.05;;;;;;;11.33;100.00;68032.31;4988950;28;20050;-84
2022/09/16 01:24:07;;;;;;;7.38;3.05;;;;;;;11.29;100.00;68022.47;4993229;28;20148;-84
2022/09/16 01:26:55;;;;;;;5.03;2.78;;;;;;;11.30;100.00;68024.16;5002545;28;20508;-83
2022/09/16 01:29:29;;;;;;;7.68;2.65;;;;;;;11.25;100.00;68023.25;5001748;28;20069;-83
2022/09/16 01:32:18;;;;;;;10.43;3.45;;;;;;;11.28;100.00;68027.22;5027301;28;20045;-84
2022/09/16 01:34:57;;;;;;;8.80;3.25;;;;;;;11.34;100.00;68032.91;5029042;28;20047;-84
2022/09/16 01:37:31;;;;;;;9.65;3.22;;;;;;;;;;5025591;28;20045;-83
2022/09/16 01:40:03;;;;;;;7.50;3.00;;;;;;;11.29;100.00;68027.78;5018432;28;20045;-85
2022/09/16 01:43:10;;;;;;;6.47;3.20;;;;;;;11.28;100.00;68026.66;5045224;28;20355;-85
2022/09/16 01:45:42;;;;;;;8.18;3.75;;;;;;;11.31;100.00;68030.06;4997449;28;20087;-86
2022/09/16 01:48:26;;;;;;;8.07;3.22;;;;;;;11.33;100.00;68032.31;5016188;28;20411;-85
2022/09/16 01:51:07;;;;;;;10.48;3.95;;;;;;;;;;5012032;28;20049;-86
2022/09/16 01:53:55;;;;;;;6.20;3.15;;;;;;;;;;5030086;28;20033;-84
2022/09/16 01:56:31;;;;;;;5.97;3.03;;;;;;;11.25;100.00;68017.94;5030773;28;20557;-84
2022/09/16 01:59:02;;;;;;;6.32;2.85;;;;;;;11.25;100.00;68023.81;5026162;28;20053;-85
2022/09/16 02:01:35;;;;;;;8.18;3.30;;;;;;;11.28;100.00;68021.91;5028902;28;20048;-85
2022/09/16 02:04:06;;;;;;;7.30;3.55;;;;;;;11.32;100.00;68025.88;5029794;28;20045;-84
2022/09/16 02:06:32;;;;;;;6.32;2.97;;;;;;;;;;5030497;28;20040;-85
2022/09/16 02:09:03;;;;;;;9.10;3.65;;;;;;;11.25;100.00;68017.94;5031074;28;20045;-85
2022/09/16 02:11:28;;;;;;;7.13;3.47;;;;;;;;;;5026138;28;20779;-83
2022/09/16 02:14:08;;;;;;;11.75;3.40;;;;;;;11.25;100.00;68023.25;5030629;28;20125;-84
2022/09/16 02:16:47;;;;;;;8.38;3.30;;;;;;;11.19;100.00;68011.09;5026583;28;20048;-85
2022/09/16 02:19:27;;;;;;;6.28;3.13;;;;;;;11.17;100.00;68008.84;5023505;28;20041;-84
2022/09/16 02:21:55;;;;;;;11.05;3.60;;;;;;;11.20;100.00;68017.56;5025121;28;20558;-84
2022/09/16 02:24:22;;;;;;;8.05;3.67;;;;;;;11.20;100.00;68012.81;5026589;28;20061;-84
2022/09/16 02:26:51;;;;;;;12.85;3.85;;;;;;;;;;5026847;28;20071;-84
2022/09/16 02:29:19;;;;;;;9.53;4.20;;;;;;;;;;5029245;28;20037;-84
2022/09/16 02:31:47;;;;;;;7.45;3.58;;;;;;;11.26;100.00;68019.06;5026921;28;20331;-84
2022/09/16 02:34:18;;;;;;;7.65;3.78;;;;;;;;;;5027151;28;20083;-84
2022/09/16 02:36:51;;;;;;;7.63;3.40;;;;;;;11.26;100.00;68019.06;5026682;28;20045;-84
2022/09/16 02:39:22;;;;;;;7.43;3.15;;;;;;;11.23;100.00;68015.66;5027177;28;20033;-84
2022/09/16 02:41:48;;;;;;;5.15;2.55;;;;;;;11.23;100.00;68015.66;5028448;28;20103;-85
2022/09/16 02:44:14;;;;;;;6.05;2.13;;;;;;;11.16;100.00;68016.25;5018544;28;20046;-85
2022/09/16 02:46:46;;;;;;;9.05;2.78;;;;;;;;;;5010554;28;20037;-84
2022/09/16 02:49:25;;;;;;;5.75;2.38;;;;;;;;;;5006892;28;20085;-84
2022/09/16 02:52:09;;;;;;;6.20;1.90;;;;;;;11.09;100.00;67999.75;5015852;28;20682;-84
2022/09/16 02:54:59;;;;;;;5.05;1.92;;;;;;;11.08;100.00;68004.53;5025941;28;20510;-84
2022/09/16 02:57:26;;;;;;;4.28;1.85;;;;;;;;;;5023776;28;20052;-84
2022/09/16 02:59:51;;;;;;;4.97;2.40;;;;;;;;;;5024733;28;20045;-84
2022/09/16 03:02:17;;;;;;;5.97;2.00;;;;;;;;;;5023372;28;20053;-84
2022/09/16 03:04:42;;;;;;;4.88;2.25;;;;;;;;;;5007996;28;20572;-84
2022/09/16 03:07:09;;;;;;;7.20;2.47;;;;;;;11.13;100.00;68004.28;5008327;28;20069;-84
2022/09/16 03:09:37;;;;;;;7.50;2.65;;;;;;;11.12;100.00;68003.16;5013124;28;20614;-84
2022/09/16 03:12:43;;;;;;;7.80;2.50;;;;;;;11.13;100.00;68004.28;5024320;28;20052;-84
2022/09/16 03:15:34;;;;;;;8.90;2.80;;;;;;;11.13;100.00;68009.63;5010488;28;20037;-85
2022/09/16 03:18:21;;;;;;;5.10;2.25;;;;;;;11.09;100.00;68000.31;5026899;28;20041;-85
2022/09/16 03:20:58;;;;;;;10.80;2.65;;;;;;;;;;5019420;28;20034;-84
2022/09/16 03:23:32;;;;;;;8.80;2.75;;;;;;;;;;5027800;28;20038;-85
2022/09/16 03:26:26;;;;;;;7.53;2.50;;;;;;;11.06;100.00;67997.47;5015743;22;20506;-79
2022/09/16 03:29:31;;;;;;;5.13;2.45;;;;;;;11.00;100.00;67996.00;5017011;28;20053;-79
2022/09/16 03:32:08;;;;;;;5.30;2.83;;;;;;;;;;5023976;28;20084;-79
2022/09/16 03:34:48;;;;;;;4.93;2.60;;;;;;;11.03;100.00;67998.84;5023759;28;20045;-79
2022/09/16 03:37:16;;;;;;;6.03;2.40;;;;;;;;;;5023225;28;20041;-79
2022/09/16 03:39:41;;;;;;;6.60;3.03;;;;;;;;;;5009002;28;20046;-79
2022/09/16 03:42:10;;;;;;;8.40;3.22;;;;;;;11.14;100.00;68013.44;5041815;22;20083;-79
2022/09/16 03:44:39;;;;;;;8.00;3.27;;;;;;;11.11;100.00;68002.03;4988031;28;20043;-78
2022/09/16 03:47:06;;;;;;;7.30;2.95;;;;;;;11.13;100.00;68010.19;4985364;28;20642;-79
2022/09/16 03:49:32;;;;;;;7.13;2.80;;;;;;;11.10;100.00;68001.44;4988153;28;20042;-79
2022/09/16 03:51:57;;;;;;;5.85;2.00;;;;;;;11.03;100.00;67993.50;4989089;28;20390;-78
2022/09/16 03:54:23;;;;;;;5.70;2.00;;;;;;;10.92;100.00;67986.34;4988703;28;20075;-79
2022/09/16 03:56:48;;;;;;;4.47;1.80;;;;;;;;;;4983280;28;20053;-78
2022/09/16 03:59:14;;;;;;;4.15;1.10;;;;;;;;;;4986893;28;20138;-78
2022/09/16 04:01:39;;;;;;;6.05;1.77;;;;;;;;;;4990185;28;20042;-79
2022/09/16 04:04:04;;;;;;;2.90;1.40;;;;;;;10.81;100.00;67969.09;4991457;28;20042;-78
2022/09/16 04:06:30;;;;;;;5.00;1.52;;;;;;;;;;4985725;28;20305;-78
2022/09/16 04:08:59;;;;;;;3.42;1.23;;;;;;;10.74;100.00;67966.50;4989388;28;20110;-79
2022/09/16 04:11:25;;;;;;;7.55;1.80;;;;;;;;;;4991856;28;20038;-78
2022/09/16 04:13:50;;;;;;;3.67;1.33;;;;;;;;;;4991137;28;20747;-79
2022/09/16 04:16:20;;;;;;;5.20;1.38;;;;;;;;;;4991266;28;20041;-79
2022/09/16 04:18:46;;;;;;;4.88;1.75;;;;;;;10.84;100.00;67977.84;4987494;28;20050;-78
2022/09/16 04:21:11;;;;;;;7.28;1.80;;;;;;;;;;4988205;28;20049;-78
2022/09/16 04:23:37;;;;;;;5.65;1.45;;;;;;;10.85;100.00;67978.97;4989642;28;20042;-78
2022/09/16 04:26:02;;;;;;;5.15;1.67;;;;;;;10.89;100.00;67982.94;4987808;28;20057;-79
2022/09/16 04:28:29;;;;;;;5.07;1.75;;;;;;;;;;4989386;28;20493;-79
2022/09/16 04:30:58;;;;;;;6.35;1.85;;;;;;;;;;4989802;28;20062;-79
2022/09/16 04:33:26;;;;;;;4.38;1.73;;;;;;;;;;4991274;28;20042;-78
2022/09/16 04:35:51;;;;;;;6.38;2.30;;;;;;;;;;4989962;28;20065;-80
2022/09/16 04:38:16;;;;;;;9.45;2.50;;;;;;;;;;5005147;28;20030;-80
2022/09/16 04:40:41;;;;;;;10.07;2.90;;;;;;;;;;4979854;28;20038;-81
2022/09/16 04:43:08;;;;;;;8.45;2.95;;;;;;;10.96;100.00;67986.16;5006643;28;20277;-80
2022/09/16 04:45:33;;;;;;;6.50;3.67;;;;;;;10.98;100.00;67993.16;4985347;28;20125;-79
2022/09/16 04:47:59;;;;;;;9.02;3.53;;;;;;;;;;4986830;28;20505;-80
2022/09/16 04:50:24;;;;;;;6.55;3.30;;;;;;;10.92;100.00;67986.34;4986141;28;20252;-80
2022/09/16 04:52:50;;;;;;;11.95;4.15;;;;;;;10.94;100.00;67989.19;4986380;28;20058;-80
2022/09/16 04:55:17;;;;;;;10.07;3.83;;;;;;;10.95;100.00;67990.31;4990001;28;20031;-81
2022/09/16 04:57:42;;;;;;;13.65;5.20;;;;;;;;;;5003966;28;20038;-80
2022/09/16 05:00:07;;;;;;;11.07;5.38;;;;;;;;;;4988766;28;20395;-80
2022/09/16 05:02:33;;;;;;;7.95;4.57;;;;;;;10.96;100.00;67991.47;4988084;28;20108;-80
2022/09/16 05:04:58;;;;;;;11.20;5.10;;;;;;;10.91;100.00;67985.78;4987704;28;20134;-80
2022/09/16 05:07:24;;;;;;;10.10;5.13;;;;;;;10.94;100.00;67988.63;4987162;28;20034;-80
2022/09/16 05:09:49;;;;;;;10.35;6.25;;;;;;;10.96;100.00;67985.56;4990556;28;20051;-81
2022/09/16 05:12:14;;;;;;;9.18;4.35;;;;;;;10.90;100.00;67979.31;4984006;28;20042;-80
2022/09/16 05:14:40;;;;;;;10.05;4.75;;;;;;;;;;4988409;28;20039;-80
2022/09/16 05:17:06;;;;;;;12.93;4.88;;;;;;;10.94;100.00;67983.88;4990474;28;20498;-80
2022/09/16 05:19:31;;;;;;;9.50;5.18;;;;;;;;;;4990667;28;20508;-80
2022/09/16 05:21:56;;;;;;;8.55;5.40;;;;;;;10.96;100.00;67986.16;4989327;28;20046;-79
2022/09/16 05:24:22;;;;;;;9.13;5.47;;;;;;;10.97;100.00;67987.28;4992052;28;20509;-80
2022/09/16 05:26:47;;;;;;;9.60;4.82;;;;;;;10.96;100.00;67986.16;4990371;28;20035;-80
2022/09/16 05:29:14;;;;;;;12.32;4.80;;;;;;;;;;4985742;28;20133;-80
2022/09/16 05:31:41;;;;;;;9.45;4.18;;;;;;;10.97;100.00;67987.28;4987421;28;20069;-79
2022/09/16 05:34:16;;;;;;;8.02;3.50;;;;;;;10.96;100.00;67990.88;4983423;28;20185;-80
2022/09/16 05:36:43;;;;;;;9.38;3.95;;;;;;;10.94;100.00;67983.88;4981691;28;20043;-80
2022/09/16 05:39:11;;;;;;;9.30;4.03;;;;;;;10.96;100.00;67985.56;4988131;28;20060;-80
2022/09/16 05:41:37;;;;;;;11.95;3.33;;;;;;;;;;4988588;28;20069;-80
2022/09/16 05:44:03;;;;;;;9.93;3.55;;;;;;;10.90;100.00;67978.75;4990444;28;20509;-80
2022/09/16 05:46:28;;;;;;;7.70;4.25;;;;;;;10.90;100.00;67984.63;4985395;28;20117;-80
2022/09/16 05:48:55;;;;;;;6.75;3.60;;;;;;;10.90;100.00;67984.63;4987536;28;20182;-80
2022/09/16 05:51:21;;;;;;;8.77;3.45;;;;;;;;;;4989242;28;20047;-80
2022/09/16 05:53:48;;;;;;;6.03;3.58;;;;;;;10.89;100.00;67983.50;4988344;28;20042;-81
2022/09/16 05:56:21;;;;;;;7.03;3.40;;;;;;;10.88;100.00;67982.38;4981647;28;20121;-79
2022/09/16 05:58:47;;;;;;;10.07;3.25;;;;;;;10.84;100.00;67972.50;5004697;28;20038;-81
2022/09/16 06:01:12;;;;;;;9.13;3.85;;;;;;;10.87;100.00;67983.91;4987312;28;20046;-80
2022/09/16 06:03:39;;;;;;;6.38;3.08;;;;;;;10.83;100.00;67976.72;4988480;28;20054;-81
2022/09/16 06:06:20;;;;;;;6.07;3.42;;;;;;;10.81;100.00;67969.66;4973618;28;20050;-81
2022/09/16 06:08:46;;;;;;;7.68;3.30;;;;;;;;;;4986465;28;20490;-80
2022/09/16 06:11:11;;;;;;;5.82;2.88;;;;;;;;;;4993495;28;20050;-79
2022/09/16 06:13:37;;;;;;;8.20;2.90;;;;;;;10.91;100.00;67977.81;5001392;28;20053;-82
2022/09/16 06:16:05;;;;;;;8.07;2.55;;;;;;;10.87;100.00;67981.25;4987996;28;20046;-82
2022/09/16 06:18:32;;;;;;;5.78;2.50;;;;;;;10.79;100.00;67972.19;4990103;28;20041;-82
2022/09/16 06:21:01;;;;;;;6.30;2.95;;;;;;;10.86;100.00;67979.53;4990527;28;20046;-82
2022/09/16 06:23:26;;;;;;;7.30;3.00;;;;;;;10.86;100.00;67974.22;4987817;28;20117;-80
2022/09/16 06:26:02;;;;;;;6.07;2.78;;;;;;;10.83;100.00;67976.72;4993464;28;20132;-82
2022/09/16 06:28:28;;;;;;;8.57;2.72;;;;;;;10.88;100.00;67981.81;4993916;28;20026;-82
2022/09/16 06:31:07;;;;;;;8.50;3.42;;;;;;;10.94;100.00;67983.88;4984303;28;20046;-81
2022/09/16 06:33:35;;;;;;;8.68;2.53;;;;;;;;;;4993525;28;20426;-80
2022/09/16 06:36:15;;;;;;;7.07;3.00;;;;;;;10.94;100.00;67983.88;5000346;28;20433;-80
2022/09/16 06:38:41;;;;;;;8.65;2.70;;;;;;;;;;4988288;28;20038;-80
2022/09/16 06:41:08;;;;;;;8.73;3.17;;;;;;;10.97;100.00;67986.72;4987241;28;20065;-80
2022/09/16 06:43:34;;;;;;;9.10;2.35;;;;;;;;;;4987997;28;20034;-80
2022/09/16 06:46:04;;;;;;;8.75;2.53;;;;;;;11.07;100.00;67998.63;4992640;28;20118;-80
2022/09/16 06:48:35;;;;;;;7.90;2.70;;;;;;;11.11;100.00;68002.03;4995384;28;20049;-80
2022/09/16 06:51:04;;;;;;;8.48;2.80;;;;;;;11.15;100.00;68006.56;4995271;28;20046;-80
2022/09/16 06:53:30;;;;;;;7.57;2.60;;;;;;;11.19;100.00;68011.09;4995410;28;20132;-81
2022/09/16 06:56:00;;;;;;;6.90;3.17;;;;;;;11.27;100.00;68020.19;4989713;28;20053;-80
2022/09/16 06:58:28;;;;;;;7.38;2.90;;;;;;;11.31;100.00;68030.06;4989952;28;20065;-80
2022/09/16 07:00:54;;;;;;;6.80;2.72;;;;;;;11.33;100.00;68032.31;4987359;28;20049;-80
2022/09/16 07:03:19;;;;;;;4.35;2.17;;;;;;;;;;4986860;28;20702;-81
2022/09/16 07:05:54;;;;;;;4.37;2.60;;;;;;;;;;4987117;28;20058;-81
2022/09/16 07:08:19;;;;;;;7.32;2.45;;;;;;;11.42;100.00;68042.56;4991332;28;20286;-82
2022/09/16 07:10:55;;;;;;;8.15;2.83;;;;;;;11.48;100.00;68044.03;4989247;28;20051;-81
2022/09/16 07:13:20;;;;;;;4.82;1.80;;;;;;;11.45;100.00;68037.97;4988389;28;20042;-81
2022/09/16 07:15:45;;;;;;;7.25;2.72;;;;;;;;;;4989982;28;20038;-81
2022/09/16 07:18:11;;;;;;;7.07;2.28;;;;;;;11.68;100.00;68065.59;4993229;28;20043;-81
2022/09/16 07:20:36;;;;;;;9.25;2.83;;;;;;;11.73;100.00;68071.84;4992649;28;20038;-81
2022/09/16 07:23:01;;;;;;;6.55;2.35;;;;;;;;;;4991726;28;20070;-81
2022/09/16 07:25:27;;;;;;;5.63;2.13;;;;;;;;;;4990634;28;20105;-81
2022/09/16 07:27:53;;;;;;;8.75;2.67;;;;;;;11.86;100.00;68090.84;4988280;28;20304;-81
2022/09/16 07:30:18;;;;;;;5.45;2.05;;;;;;;11.88;100.00;68093.13;4989944;28;20042;-81
2022/09/16 07:32:43;;;;;;;3.70;1.60;;;;;;;11.91;100.00;68089.09;5006080;28;20045;-82
2022/09/16 07:35:09;;;;;;;7.90;2.08;;;;;;;11.90;100.00;68090.63;4990918;28;20175;-81
2022/09/16 07:37:34;;;;;;;6.60;1.73;;;;;;;11.91;100.00;68091.78;4994737;28;20545;-81
2022/09/16 07:39:59;;;;;;;5.30;2.08;;;;;;;12.02;100.00;68100.44;4993231;28;20046;-81
2022/09/16 07:42:28;;;;;;;7.55;2.10;;;;;;;12.04;100.00;68105.97;4992513;28;20177;-81
2022/09/16 07:44:53;;;;;;;6.57;1.70;;;;;;;;;;4991312;28;20093;-80
2022/09/16 07:47:18;;;;;;;6.77;1.67;;;;;;;12.25;100.00;68134.03;4990036;28;20282;-80
2022/09/16 07:49:44;;;;;;;8.05;1.65;;;;;;;;;;4987653;28;20344;-80
2022/09/16 07:52:09;;;;;;;6.97;1.90;;;;;;;;;;4993603;28;20038;-80
2022/09/16 07:54:34;;;;;;;8.90;2.58;;;;;;;12.34;100.00;68138.91;4993811;28;20045;-80
2022/09/16 07:57:00;;;;;;;6.00;1.80;;;;;;;12.41;100.00;68152.22;4990141;28;20121;-80
2022/09/16 07:59:25;;;;;;;6.88;1.42;;;;;;;;;;4992772;28;20582;-80
2022/09/16 08:01:50;;;;;;;6.22;1.45;;;;;;;;;;4989804;28;20049;-80
2022/09/16 08:04:17;;;;;;;5.07;1.33;;;;;;;12.45;100.00;68150.84;4992191;28;20065;-80
2022/09/16 08:06:43;;;;;;;7.47;1.58;;;;;;;12.48;100.00;68154.25;4990506;28;20089;-80
2022/09/16 08:09:08;;;;;;;3.58;1.58;;;;;;;12.53;100.00;68157.28;4991301;28;20457;-80
2022/09/16 08:11:34;;;;;;;7.07;1.33;;;;;;;12.59;100.00;68166.75;4991723;28;20129;-80
2022/09/16 08:13:59;;;;;;;4.63;1.42;;;;;;;;;;4989281;28;20057;-80
2022/09/16 08:16:26;;;;;;;2.20;1.00;;;;;;;12.65;100.00;68173.56;4990388;28;20046;-80
2022/09/16 08:18:53;;;;;;;6.22;1.30;;;;;;;;;;4990912;28;20411;-80
2022/09/16 08:21:19;;;;;;;4.03;1.15;;;;;;;;;;4990898;28;20572;-80
2022/09/16 08:23:45;;;;;;;4.47;0.90;;;;;;;12.85;100.00;68201.09;4991258;28;20125;-81
2022/09/16 08:26:12;;;;;;;5.50;0.85;;;;;;;12.92;100.00;68201.03;4989617;28;20201;-80
2022/09/16 08:28:39;;;;;;;4.55;0.93;;;;;;;13.00;100.00;68212.78;4990915;28;20125;-80
2022/09/16 08:31:04;;;;;;;3.85;0.80;;;;;;;;;;5006916;28;20085;-80
2022/09/16 08:33:30;;;;;;;3.88;1.05;;;;;;;13.08;99.23;68221.88;4993089;28;20069;-80
2022/09/16 08:36:06;;;;;;;4.03;0.90;;;;;;;13.16;99.77;68230.41;4989735;28;20770;-80
2022/09/16 08:38:32;;;;;;;5.85;1.00;;;;;;;13.12;97.94;68225.88;4991539;28;20050;-80
2022/09/16 08:41:42;;;;;;;2.60;0.75;;;;;;;13.23;98.64;68243.72;4989785;28;20057;-80
2022/09/16 08:44:32;;;;;;;5.63;0.75;;;;;;;13.34;98.16;68247.66;4964607;28;20138;-80
2022/09/16 08:47:01;;;;;;;3.00;0.93;;;;;;;13.36;97.20;68249.38;4945926;28;20123;-80
2022/09/16 08:49:35;;;;;;;4.93;0.90;;;;;;;13.43;96.73;68260.56;4973256;28;20046;-80
2022/09/16 08:52:09;;;;;;;4.15;1.08;;;;;;;13.57;95.70;68273.25;4992316;28;20054;-81
2022/09/16 08:54:41;;;;;;;6.35;1.20;;;;;;;;;;4994890;28;20122;-81
2022/09/16 08:57:10;;;;;;;4.22;1.13;;;;;;;;;;4989167;28;20038;-81
2022/09/16 08:59:41;;;;;;;3.90;1.13;;;;;;;13.68;93.95;68293.78;4992224;28;20525;-81
2022/09/16 09:02:30;;;;;;;1.92;0.70;;;;;;;13.66;94.28;68286.16;4992156;28;20050;-81
2022/09/16 09:04:57;;;;;;;5.28;1.00;;;;;;;13.73;94.57;68293.56;4988142;28;20070;-80
2022/09/16 09:07:28;;;;;;;5.20;1.40;;;;;;;13.82;93.39;68303.25;4992654;28;20126;-81
2022/09/16 09:10:08;;;;;;;5.10;0.73;;;;;;;13.69;90.23;68286.91;4992099;28;20041;-80
2022/09/16 09:12:59;;;;;;;4.85;1.27;;;;;;;13.71;90.48;68291.84;4990041;28;20030;-80
2022/09/16 09:15:35;;;;;;;4.75;1.15;;;;;;;13.74;88.87;68295.28;5002742;28;20497;-80
2022/09/16 09:18:03;;;;;;;3.15;0.70;;;;;;;;;;4995080;28;20729;-81
2022/09/16 09:20:28;;;;;;;4.88;0.73;;;;;;;;;;4989860;28;20075;-80
2022/09/16 09:23:12;;;;;;;4.28;0.80;;;;;;;13.79;85.97;68307.84;4990159;28;20035;-80
2022/09/16 09:25:47;;;;;;;2.80;0.35;;;;;;;13.96;86.35;68319.75;4994087;28;20073;-80
2022/09/16 09:28:16;;;;;;;2.35;0.55;;;;;;;;;;4992698;28;20097;-80
2022/09/16 09:30:54;;;;;;;3.92;0.63;;;;;;;13.98;81.82;68319.34;4992957;28;20061;-80
2022/09/16 09:33:40;;;;;;;3.15;0.80;;;;;;;14.01;82.40;68324.84;4985430;28;20039;-80
2022/09/16 09:36:39;;;;;;;3.67;1.10;;;;;;;14.12;84.64;68337.38;4992238;28;20081;-80
2022/09/16 09:39:07;;;;;;;6.57;1.17;;;;;;;14.11;82.78;68333.56;4990357;28;20065;-79
2022/09/16 09:41:38;;;;;;;3.15;0.82;;;;;;;14.10;82.25;68335.09;5021014;22;20063;-86
2022/09/16 09:44:22;;;;;;;5.57;1.23;;;;;;;14.17;84.72;68348.41;5036046;28;20041;-84
2022/09/16 09:46:53;;;;;;;3.53;0.73;;;;;;;14.19;83.57;68345.34;5034553;28;20038;-84
2022/09/16 09:49:27;;;;;;;5.05;0.95;;;;;;;14.34;83.60;68359.16;5035782;28;20105;-84
2022/09/16 09:52:11;;;;;;;8.55;1.48;;;;;;;14.42;82.95;68370.94;5023279;28;20038;-85
2022/09/16 09:54:38;;;;;;;5.47;1.20;;;;;;;14.42;82.62;68370.38;5020119;28;20117;-85
2022/09/16 09:57:31;;;;;;;3.25;0.77;;;;;;;14.56;81.41;68383.66;5026797;28;20092;-86
2022/09/16 10:00:18;;;;;;;3.05;0.70;;;;;;;14.58;78.75;68388.03;5019663;28;20037;-85
2022/09/16 10:02:44;;;;;;;6.88;1.08;;;;;;;;;;5027473;28;20408;-84
2022/09/16 10:05:23;;;;;;;2.33;0.60;;;;;;;14.72;77.46;68403.41;5030949;28;20434;-86
2022/09/16 10:07:53;;;;;;;4.40;0.50;;;;;;;14.75;75.84;68407.41;5021020;28;20524;-84
2022/09/16 10:10:21;;;;;;;3.63;0.57;;;;;;;14.84;75.61;68417.63;5030736;28;20037;-87
2022/09/16 10:12:46;;;;;;;5.50;0.87;;;;;;;;;;5023875;28;20037;-85
2022/09/16 10:15:24;;;;;;;3.45;0.68;;;;;;;15.03;76.46;68438.16;5017850;28;20065;-87
2022/09/16 10:17:51;;;;;;;6.32;1.17;;;;;;;15.10;75.27;68446.69;5016785;28;20048;-85
2022/09/16 10:20:35;;;;;;;6.28;1.00;;;;;;;15.09;74.85;68442.88;5016124;28;20041;-86
2022/09/16 10:23:05;;;;;;;2.30;0.73;;;;;;;15.26;76.33;68461.09;5014133;28;20048;-85
2022/09/16 10:25:32;;;;;;;4.45;1.00;;;;;;;15.22;75.60;68457.13;5011270;28;20141;-85
2022/09/16 10:28:00;;;;;;;4.63;1.00;;;;;;;15.24;75.21;68461.50;5016965;28;20029;-85
2022/09/16 10:30:28;;;;;;;5.50;0.88;;;;;;;15.26;75.16;68464.34;5029021;28;20041;-84
2022/09/16 10:33:01;;;;;;;5.78;1.02;;;;;;;15.21;75.55;68455.41;5031227;28;20060;-84
2022/09/16 10:35:33;;;;;;;5.72;0.90;;;;;;;15.09;75.35;68442.28;5020352;28;20132;-85
2022/09/16 10:38:02;;;;;;;5.97;0.93;;;;;;;14.93;76.23;68427.31;5022715;28;20049;-85
2022/09/16 10:40:28;;;;;;;2.63;0.73;;;;;;;14.78;75.70;68410.81;5018850;28;20037;-85
2022/09/16 10:43:02;;;;;;;4.78;0.77;;;;;;;14.50;72.83;68379.50;5021955;28;20057;-85
2022/09/16 10:45:29;;;;;;;2.35;0.55;;;;;;;;;;5033234;28;20048;-85
2022/09/16 10:47:59;;;;;;;1.73;0.40;;;;;;;;;;5020769;28;20042;-85
2022/09/16 10:50:25;;;;;;;1.52;0.35;;;;;;;13.86;70.09;68307.78;5021829;28;20046;-85
2022/09/16 10:52:51;;;;;;;1.30;0.20;;;;;;;13.80;71.38;68301.53;5033005;28;20091;-86
2022/09/16 10:55:27;;;;;;;1.45;0.40;;;;;;;;;;5031019;28;20045;-86
2022/09/16 10:58:04;;;;;;;1.40;0.38;;;;;;;;;;5022739;28;20393;-87
2022/09/16 11:00:38;;;;;;;1.65;0.30;;;;;;;13.79;71.52;68299.84;5036526;28;20074;-85
2022/09/16 11:03:13;;;;;;;2.38;0.47;;;;;;;;;;5022985;28;20057;-85
2022/09/16 11:06:12;;;;;;;1.58;0.47;;;;;;;13.85;73.21;68306.66;5031762;28;20053;-84
2022/09/16 11:08:56;;;;;;;2.42;0.70;;;;;;;13.82;75.33;68303.25;5039811;28;20049;-85
2022/09/16 11:11:31;;;;;;;3.78;0.80;;;;;;;;;;5028724;28;20071;-86
2022/09/16 11:14:24;;;;;;;2.50;0.60;;;;;;;13.50;79.88;68267.97;5024190;28;20044;-85
2022/09/16 11:17:15;;;;;;;2.67;0.50;;;;;;;13.32;79.77;68245.97;5028878;28;20042;-87
2022/09/16 11:19:55;;;;;;;3.22;0.50;;;;;;;13.43;82.02;68265.34;5023959;28;20664;-87
2022/09/16 11:22:58;;;;;;;3.30;0.60;;;;;;;13.39;81.43;68250.69;5025657;28;20087;-87
2022/09/16 11:25:42;;;;;;;3.53;0.75;;;;;;;;;;5043145;28;20046;-84
2022/09/16 11:28:26;;;;;;;3.90;0.50;;;;;;;;;;5027538;28;20053;-87
2022/09/16 11:31:16;;;;;;;1.80;0.60;;;;;;;13.71;81.01;68291.28;5030257;28;20038;-86
2022/09/16 11:34:01;;;;;;;3.80;0.70;;;;;;;;;;5028747;28;20049;-85
2022/09/16 11:36:29;;;;;;;4.18;0.75;;;;;;;;;;5033334;28;20041;-86
2022/09/16 11:39:00;;;;;;;3.95;0.57;;;;;;;14.29;78.45;68350.22;5029148;28;20045;-85
2022/09/16 11:41:44;;;;;;;3.85;0.70;;;;;;;14.49;81.43;68377.78;5026294;28;20133;-82
2022/09/16 11:44:25;;;;;;;1.80;0.45;;;;;;;14.63;77.14;68394.31;5023028;28;20053;-82
2022/09/16 11:47:00;;;;;;;4.22;0.40;;;;;;;;;;5016500;28;20489;-83
2022/09/16 11:50:03;;;;;;;1.60;0.50;;;;;;;14.94;76.55;68428.47;5017415;28;20042;-84
2022/09/16 11:52:43;;;;;;;3.03;0.70;;;;;;;14.95;74.37;68429.59;5012208;28;20037;-84
2022/09/16 11:55:50;;;;;;;3.10;0.52;;;;;;;15.12;73.06;68448.97;5016938;28;20056;-82
2022/09/16 11:58:37;;;;;;;4.05;0.65;;;;;;;15.30;72.10;68468.31;4983139;28;20054;-85
2022/09/16 12:01:14;;;;;;;2.85;0.40;;;;;;;15.57;73.35;68496.41;5032029;28;20038;-82
2022/09/16 12:03:49;;;;;;;2.70;0.60;;;;;;;15.69;70.94;68508.97;5019060;28;20046;-83
2022/09/16 12:06:17;;;;;;;5.88;0.80;;;;;;;;;;5007260;28;20054;-83
2022/09/16 12:09:01;;;;;;;3.45;0.90;;;;;;;15.66;70.43;68508.22;5023192;28;20068;-83
2022/09/16 12:11:51;;;;;;;5.07;0.85;;;;;;;15.81;69.70;68522.06;5004509;28;20053;-82
2022/09/16 12:14:19;;;;;;;5.95;1.00;;;;;;;;;;4997818;28;20048;-82
2022/09/16 12:17:00;;;;;;;7.22;1.50;;;;;;;15.68;67.52;68507.81;5009946;28;20041;-83
2022/09/16 12:19:30;;;;;;;6.70;1.40;;;;;;;;;;5021653;28;20037;-82
2022/09/16 12:22:00;;;;;;;4.43;0.88;;;;;;;15.15;68.30;68446.44;5014049;28;20034;-82
2022/09/16 12:24:25;;;;;;;4.20;0.90;;;;;;;;;;5014932;28;20045;-83
2022/09/16 12:27:05;;;;;;;4.60;0.98;;;;;;;14.92;69.02;68425.63;5021164;28;20037;-83
2022/09/16 12:29:49;;;;;;;3.78;0.60;;;;;;;;;;5030790;28;20047;-83
2022/09/16 12:32:26;;;;;;;3.40;0.73;;;;;;;14.75;64.64;68401.47;5028365;28;20068;-82
2022/09/16 12:35:05;;;;;;;2.20;0.70;;;;;;;14.70;64.98;68401.13;5025373;28;20097;-82
2022/09/16 12:37:39;;;;;;;1.73;0.63;;;;;;;14.83;66.27;68421.31;5033547;28;20105;-83
2022/09/16 12:40:05;;;;;;;4.32;0.77;;;;;;;14.98;65.43;68430.34;5026149;28;20034;-82
2022/09/16 12:43:02;;;;;;;1.85;0.60;;;;;;;15.19;65.17;68455.78;5017575;28;20042;-84